sensor_id;sensor_type;location;lat;lon;timestamp;pressure;altitude;pressure_sealevel;temperature;humidity
9899;BME280;4988;49.238;6.698;2023-03-21T00:01:03;99408.88;;;6.39;99.71
9899;BME280;4988;49.238;6.698;2023-03-21T00:03:29;99409.75;;;6.40;98.70
9899;BME280;4988;49.238;6.698;2023-03-21T00:05:55;99409.69;;;6.41;99.20
9899;BME280;4988;49.238;6.698;2023-03-21T00:08:22;99404.41;;;6.41;99.33
9899;BME280;4988;49.238;6.698;2023-03-21T00:10:57;99403.66;;;6.36;99.67
9899;BME280;4988;49.238;6.698;2023-03-21T00:13:23;99398.31;;;6.39;99.49
9899;BME280;4988;49.238;6.698;2023-03-21T00:15:50;99402.66;;;6.42;99.48
9899;BME280;4988;49.238;6.698;2023-03-21T00:18:20;99396.63;;;6.35;99.57
9899;BME280;4988;49.238;6.698;2023-03-21T00:21:04;99392.38;;;6.30;99.65
9899;BME280;4988;49.238;6.698;2023-03-21T00:23:31;99391.59;;;6.26;99.31
9899;BME280;4988;49.238;6.698;2023-03-21T00:25:57;99390.78;;;6.22;99.07
9899;BME280;4988;49.238;6.698;2023-03-21T00:28:23;99389.91;;;6.22;99.66
9899;BME280;4988;49.238;6.698;2023-03-21T00:30:49;99388.94;;;6.26;99.73
9899;BME280;4988;49.238;6.698;2023-03-21T00:33:15;99387.28;;;6.20;100.00
9899;BME280;4988;49.238;6.698;2023-03-21T00:35:41;99388.28;;;6.16;99.60
9899;BME280;4988;49.238;6.698;2023-03-21T00:38:13;99384.25;;;6.01;100.00
9899;BME280;4988;49.238;6.698;2023-03-21T00:40:39;99381.75;;;5.92;100.00
9899;BME280;4988;49.238;6.698;2023-03-21T00:43:04;99381.06;;;5.84;100.00
9899;BME280;4988;49.238;6.698;2023-03-21T00:45:30;99381.22;;;5.77;100.00
9899;BME280;4988;49.238;6.698;2023-03-21T00:47:56;99377.00;;;5.69;100.00
9899;BME280;4988;49.238;6.698;2023-03-21T00:50:21;99379.81;;;5.61;100.00
9899;BME280;4988;49.238;6.698;2023-03-21T00:52:47;99376.50;;;5.51;100.00
9899;BME280;4988;49.238;6.698;2023-03-21T00:55:14;99376.47;;;5.53;100.00
9899;BME280;4988;49.238;6.698;2023-03-21T00:57:40;99371.31;;;5.46;100.00
9899;BME280;4988;49.238;6.698;2023-03-21T01:00:08;99367.91;;;5.41;100.00
9899;BME280;4988;49.238;6.698;2023-03-21T01:02:37;99367.97;;;5.38;100.00
9899;BME280;4988;49.238;6.698;2023-03-21T01:05:08;99365.19;;;5.44;100.00
9899;BME280;4988;49.238;6.698;2023-03-21T01:07:33;99364.34;;;5.44;100.00
9899;BME280;4988;49.238;6.698;2023-03-21T01:09:59;99360.94;;;5.39;100.00
9899;BME280;4988;49.238;6.698;2023-03-21T01:12:24;99353.75;;;5.45;100.00
9899;BME280;4988;49.238;6.698;2023-03-21T01:14:50;99358.88;;;5.52;100.00
9899;BME280;4988;49.238;6.698;2023-03-21T01:17:15;99355.34;;;5.53;100.00
9899;BME280;4988;49.238;6.698;2023-03-21T01:19:40;99350.06;;;5.53;100.00
9899;BME280;4988;49.238;6.698;2023-03-21T01:22:06;99348.31;;;5.52;100.00
9899;BME280;4988;49.238;6.698;2023-03-21T01:24:32;99347.38;;;5.56;100.00
9899;BME280;4988;49.238;6.698;2023-03-21T01:26:58;99341.06;;;5.63;100.00
9899;BME280;4988;49.238;6.698;2023-03-21T01:29:23;99334.69;;;5.72;100.00
9899;BME280;4988;49.238;6.698;2023-03-21T01:31:48;99333.81;;;5.71;100.00
9899;BME280;4988;49.238;6.698;2023-03-21T01:34:14;99338.13;;;5.74;100.00
9899;BME280;4988;49.238;6.698;2023-03-21T01:36:39;99335.22;;;5.86;100.00
9899;BME280;4988;49.238;6.698;2023-03-21T01:39:05;99336.84;;;5.92;100.00
9899;BME280;4988;49.238;6.698;2023-03-21T01:41:32;99335.91;;;5.94;100.00
9899;BME280;4988;49.238;6.698;2023-03-21T01:43:58;99329.69;;;5.97;100.00
9899;BME280;4988;49.238;6.698;2023-03-21T01:46:31;99324.22;;;6.06;100.00
9899;BME280;4988;49.238;6.698;2023-03-21T01:51:26;99321.22;;;6.20;100.00
9899;BME280;4988;49.238;6.698;2023-03-21T01:53:54;99313.19;;;6.25;100.00
9899;BME280;4988;49.238;6.698;2023-03-21T01:56:32;99322.00;;;6.24;100.00
9899;BME280;4988;49.238;6.698;2023-03-21T01:59:07;99307.88;;;6.25;100.00
9899;BME280;4988;49.238;6.698;2023-03-21T02:01:35;99308.69;;;6.28;100.00
9899;BME280;4988;49.238;6.698;2023-03-21T02:04:02;99301.50;;;6.34;100.00
9899;BME280;4988;49.238;6.698;2023-03-21T02:06:34;99299.63;;;6.37;100.00
9899;BME280;4988;49.238;6.698;2023-03-21T02:09:05;99296.94;;;6.39;100.00
9899;BME280;4988;49.238;6.698;2023-03-21T02:11:33;99293.56;;;6.34;100.00
9899;BME280;4988;49.238;6.698;2023-03-21T02:13:59;99293.50;;;6.35;100.00
9899;BME280;4988;49.238;6.698;2023-03-21T02:21:46;99290.41;;;6.52;99.61
9899;BME280;4988;49.238;6.698;2023-03-21T02:26:59;99272.19;;;6.41;99.33
9899;BME280;4988;49.238;6.698;2023-03-21T02:35:27;99257.56;;;6.28;100.00
9899;BME280;4988;49.238;6.698;2023-03-21T02:38:06;99252.53;;;6.19;100.00
9899;BME280;4988;49.238;6.698;2023-03-21T02:40:45;99249.00;;;6.20;99.84
9899;BME280;4988;49.238;6.698;2023-03-21T02:43:24;99252.53;;;6.19;100.00
9899;BME280;4988;49.238;6.698;2023-03-21T02:48:38;99250.28;;;6.03;100.00
9899;BME280;4988;49.238;6.698;2023-03-21T02:51:06;99259.22;;;5.99;100.00
9899;BME280;4988;49.238;6.698;2023-03-21T02:53:37;99253.91;;;5.99;100.00
9899;BME280;4988;49.238;6.698;2023-03-21T02:56:06;99248.75;;;5.93;100.00
9899;BME280;4988;49.238;6.698;2023-03-21T02:58:35;99243.25;;;6.02;100.00
9899;BME280;4988;49.238;6.698;2023-03-21T03:01:02;99248.47;;;6.05;100.00
9899;BME280;4988;49.238;6.698;2023-03-21T03:03:28;99248.63;;;5.99;100.00
9899;BME280;4988;49.238;6.698;2023-03-21T03:05:56;99247.69;;;6.02;100.00
9899;BME280;4988;49.238;6.698;2023-03-21T03:11:28;99254.03;;;5.93;100.00
9899;BME280;4988;49.238;6.698;2023-03-21T03:16:37;99250.56;;;5.91;99.90
9899;BME280;4988;49.238;6.698;2023-03-21T03:19:08;99253.25;;;5.89;100.00
9899;BME280;4988;49.238;6.698;2023-03-21T03:21:46;99244.47;;;5.89;100.00
9899;BME280;4988;49.238;6.698;2023-03-21T03:24:18;99241.91;;;5.86;100.00
9899;BME280;4988;49.238;6.698;2023-03-21T03:27:12;99235.59;;;5.91;100.00
9899;BME280;4988;49.238;6.698;2023-03-21T03:29:40;99243.75;;;5.82;100.00
9899;BME280;4988;49.238;6.698;2023-03-21T03:32:16;99241.03;;;5.85;100.00
9899;BME280;4988;49.238;6.698;2023-03-21T03:34:45;99243.00;;;5.77;100.00
9899;BME280;4988;49.238;6.698;2023-03-21T03:37:26;99247.41;;;5.76;100.00
9899;BME280;4988;49.238;6.698;2023-03-21T03:40:01;99246.69;;;5.70;100.00
9899;BME280;4988;49.238;6.698;2023-03-21T03:42:34;99244.16;;;5.65;100.00
9899;BME280;4988;49.238;6.698;2023-03-21T03:45:01;99251.06;;;5.71;99.86
9899;BME280;4988;49.238;6.698;2023-03-21T03:52:45;99243.44;;;5.58;100.00
9899;BME280;4988;49.238;6.698;2023-03-21T03:55:15;99244.34;;;5.57;100.00
9899;BME280;4988;49.238;6.698;2023-03-21T03:57:42;99238.97;;;5.60;100.00
9899;BME280;4988;49.238;6.698;2023-03-21T04:00:10;99241.66;;;5.59;100.00
9899;BME280;4988;49.238;6.698;2023-03-21T04:02:37;99241.75;;;5.56;100.00
9899;BME280;4988;49.238;6.698;2023-03-21T04:05:03;99236.44;;;5.57;100.00
9899;BME280;4988;49.238;6.698;2023-03-21T04:07:29;99237.44;;;5.52;100.00
9899;BME280;4988;49.238;6.698;2023-03-21T04:09:55;99237.38;;;5.55;100.00
9899;BME280;4988;49.238;6.698;2023-03-21T04:12:21;99238.97;;;5.60;100.00
9899;BME280;4988;49.238;6.698;2023-03-21T04:14:47;99238.97;;;5.62;100.00
9899;BME280;4988;49.238;6.698;2023-03-21T04:17:13;99233.84;;;5.56;100.00
9899;BME280;4988;49.238;6.698;2023-03-21T04:19:39;99237.28;;;5.59;100.00
9899;BME280;4988;49.238;6.698;2023-03-21T04:22:04;99238.13;;;5.60;100.00
9899;BME280;4988;49.238;6.698;2023-03-21T04:24:30;99226.66;;;5.61;100.00
9899;BME280;4988;49.238;6.698;2023-03-21T04:27:00;99236.34;;;5.60;100.00
9899;BME280;4988;49.238;6.698;2023-03-21T04:29:26;99224.81;;;5.64;100.00
9899;BME280;4988;49.238;6.698;2023-03-21T04:31:53;99230.94;;;5.67;100.00
9899;BME280;4988;49.238;6.698;2023-03-21T04:34:18;99232.53;;;5.72;100.00
9899;BME280;4988;49.238;6.698;2023-03-21T04:36:48;99231.50;;;5.79;100.00
9899;BME280;4988;49.238;6.698;2023-03-21T04:39:15;99230.47;;;5.85;100.00
9899;BME280;4988;49.238;6.698;2023-03-21T04:41:43;99227.69;;;5.90;100.00
9899;BME280;4988;49.238;6.698;2023-03-21T04:44:09;99228.69;;;5.86;100.00
9899;BME280;4988;49.238;6.698;2023-03-21T04:46:36;99232.16;;;5.88;100.00
9899;BME280;4988;49.238;6.698;2023-03-21T04:49:01;99233.91;;;5.87;100.00
9899;BME280;4988;49.238;6.698;2023-03-21T04:51:27;99234.03;;;5.83;100.00
9899;BME280;4988;49.238;6.698;2023-03-21T04:53:52;99231.50;;;5.79;100.00
9899;BME280;4988;49.238;6.698;2023-03-21T04:56:22;99236.78;;;5.79;100.00
9899;BME280;4988;49.238;6.698;2023-03-21T04:58:55;99230.53;;;5.82;100.00
9899;BME280;4988;49.238;6.698;2023-03-21T05:01:20;99234.88;;;5.85;100.00
9899;BME280;4988;49.238;6.698;2023-03-21T05:03:45;99242.06;;;5.79;100.00
9899;BME280;4988;49.238;6.698;2023-03-21T05:06:11;99233.38;;;5.74;100.00
9899;BME280;4988;49.238;6.698;2023-03-21T05:08:36;99237.88;;;5.71;100.00
9899;BME280;4988;49.238;6.698;2023-03-21T05:11:03;99243.44;;;5.58;100.00
9899;BME280;4988;49.238;6.698;2023-03-21T05:13:28;99245.53;;;5.44;100.00
9899;BME280;4988;49.238;6.698;2023-03-21T05:15:53;99243.22;;;5.30;100.00
9899;BME280;4988;49.238;6.698;2023-03-21T05:18:19;99244.13;;;5.29;100.00
9899;BME280;4988;49.238;6.698;2023-03-21T05:20:50;99235.97;;;5.38;100.00
9899;BME280;4988;49.238;6.698;2023-03-21T05:23:22;99237.53;;;5.48;100.00
9899;BME280;4988;49.238;6.698;2023-03-21T05:25:48;99236.63;;;5.50;100.00
9899;BME280;4988;49.238;6.698;2023-03-21T05:28:13;99229.31;;;5.61;100.00
9899;BME280;4988;49.238;6.698;2023-03-21T05:30:42;99222.31;;;5.58;100.00
9899;BME280;4988;49.238;6.698;2023-03-21T05:33:08;99227.50;;;5.63;100.00
9899;BME280;4988;49.238;6.698;2023-03-21T05:35:33;99226.56;;;5.64;100.00
9899;BME280;4988;49.238;6.698;2023-03-21T05:37:58;99229.16;;;5.67;100.00
9899;BME280;4988;49.238;6.698;2023-03-21T05:40:25;99228.16;;;5.71;100.00
9899;BME280;4988;49.238;6.698;2023-03-21T05:42:50;99224.63;;;5.72;100.00
9899;BME280;4988;49.238;6.698;2023-03-21T05:45:15;99229.75;;;5.78;100.00
9899;BME280;4988;49.238;6.698;2023-03-21T05:47:41;99220.97;;;5.78;100.00
9899;BME280;4988;49.238;6.698;2023-03-21T05:50:07;99221.66;;;5.85;100.00
9899;BME280;4988;49.238;6.698;2023-03-21T05:52:32;99227.63;;;5.93;100.00
9899;BME280;4988;49.238;6.698;2023-03-21T05:54:58;99219.81;;;5.88;100.00
9899;BME280;4988;49.238;6.698;2023-03-21T05:57:24;99229.53;;;5.86;100.00
9899;BME280;4988;49.238;6.698;2023-03-21T05:59:52;99227.75;;;5.88;100.00
9899;BME280;4988;49.238;6.698;2023-03-21T06:02:17;99226.75;;;5.92;100.00
9899;BME280;4988;49.238;6.698;2023-03-21T06:04:42;99228.47;;;5.95;100.00
9899;BME280;4988;49.238;6.698;2023-03-21T06:07:08;99236.06;;;5.73;100.00
9899;BME280;4988;49.238;6.698;2023-03-21T06:09:33;99227.59;;;5.58;100.00
9899;BME280;4988;49.238;6.698;2023-03-21T06:11:59;99237.47;;;5.50;100.00
9899;BME280;4988;49.238;6.698;2023-03-21T06:14:25;99227.97;;;5.43;100.00
9899;BME280;4988;49.238;6.698;2023-03-21T06:16:51;99229.66;;;5.45;100.00
9899;BME280;4988;49.238;6.698;2023-03-21T06:19:18;99236.53;;;5.53;100.00
9899;BME280;4988;49.238;6.698;2023-03-21T06:21:43;99240.06;;;5.53;100.00
9899;BME280;4988;49.238;6.698;2023-03-21T06:24:09;99231.06;;;5.60;100.00
9899;BME280;4988;49.238;6.698;2023-03-21T06:26:34;99234.72;;;5.55;100.00
9899;BME280;4988;49.238;6.698;2023-03-21T06:29:00;99235.59;;;5.55;100.00
9899;BME280;4988;49.238;6.698;2023-03-21T06:31:25;99237.06;;;5.67;100.00
9899;BME280;4988;49.238;6.698;2023-03-21T06:33:51;99230.75;;;5.74;100.00
9899;BME280;4988;49.238;6.698;2023-03-21T06:36:18;99228.69;;;5.86;100.00
9899;BME280;4988;49.238;6.698;2023-03-21T06:38:43;99232.81;;;5.96;100.00
9899;BME280;4988;49.238;6.698;2023-03-21T06:41:11;99229.94;;;6.07;100.00
9899;BME280;4988;49.238;6.698;2023-03-21T06:43:36;99231.56;;;6.13;100.00
9899;BME280;4988;49.238;6.698;2023-03-21T06:46:02;99228.66;;;6.22;100.00
9899;BME280;4988;49.238;6.698;2023-03-21T06:48:28;99232.00;;;6.28;100.00
9899;BME280;4988;49.238;6.698;2023-03-21T06:50:54;99232.69;;;6.35;100.00
9899;BME280;4988;49.238;6.698;2023-03-21T06:53:21;99232.75;;;6.34;100.00
9899;BME280;4988;49.238;6.698;2023-03-21T06:55:50;99228.25;;;6.37;100.00
9899;BME280;4988;49.238;6.698;2023-03-21T06:58:16;99227.19;;;6.44;100.00
9899;BME280;4988;49.238;6.698;2023-03-21T07:00:41;99229.53;;;6.54;100.00
9899;BME280;4988;49.238;6.698;2023-03-21T07:03:07;99224.19;;;6.57;100.00
9899;BME280;4988;49.238;6.698;2023-03-21T07:05:34;99223.03;;;6.66;100.00
9899;BME280;4988;49.238;6.698;2023-03-21T07:07:59;99226.25;;;6.77;100.00
9899;BME280;4988;49.238;6.698;2023-03-21T07:10:25;99216.53;;;6.78;100.00
9899;BME280;4988;49.238;6.698;2023-03-21T07:12:51;99227.03;;;6.81;100.00
9899;BME280;4988;49.238;6.698;2023-03-21T07:15:16;99232.13;;;6.87;100.00
9899;BME280;4988;49.238;6.698;2023-03-21T07:17:41;99225.63;;;6.99;100.00
9899;BME280;4988;49.238;6.698;2023-03-21T07:20:10;99225.50;;;7.03;100.00
9899;BME280;4988;49.238;6.698;2023-03-21T07:22:37;99234.16;;;7.07;100.00
9899;BME280;4988;49.238;6.698;2023-03-21T07:25:02;99236.69;;;7.12;99.56
9899;BME280;4988;49.238;6.698;2023-03-21T07:27:28;99233.13;;;7.13;99.53
9899;BME280;4988;49.238;6.698;2023-03-21T07:29:53;99234.88;;;7.14;99.88
9899;BME280;4988;49.238;6.698;2023-03-21T07:32:19;99243.63;;;7.16;99.00
9899;BME280;4988;49.238;6.698;2023-03-21T07:34:44;99246.97;;;7.22;99.21
9899;BME280;4988;49.238;6.698;2023-03-21T07:37:09;99246.91;;;7.24;99.07
9899;BME280;4988;49.238;6.698;2023-03-21T07:39:35;99247.53;;;7.32;99.30
9899;BME280;4988;49.238;6.698;2023-03-21T07:42:00;99243.06;;;7.34;98.88
9899;BME280;4988;49.238;6.698;2023-03-21T07:44:27;99242.91;;;7.39;98.60
9899;BME280;4988;49.238;6.698;2023-03-21T07:46:53;99241.84;;;7.45;98.67
9899;BME280;4988;49.238;6.698;2023-03-21T07:49:18;99246.91;;;7.52;98.45
9899;BME280;4988;49.238;6.698;2023-03-21T07:51:44;99251.97;;;7.60;97.73
9899;BME280;4988;49.238;6.698;2023-03-21T07:54:09;99247.47;;;7.62;97.28
9899;BME280;4988;49.238;6.698;2023-03-21T07:56:35;99250.84;;;7.67;97.08
9899;BME280;4988;49.238;6.698;2023-03-21T07:59:00;99239.94;;;7.77;96.46
9899;BME280;4988;49.238;6.698;2023-03-21T08:01:26;99247.59;;;7.86;95.40
9899;BME280;4988;49.238;6.698;2023-03-21T08:03:51;99242.03;;;7.94;94.67
9899;BME280;4988;49.238;6.698;2023-03-21T08:06:21;99242.69;;;8.00;94.41
9899;BME280;4988;49.238;6.698;2023-03-21T08:08:47;99239.88;;;8.05;94.97
9899;BME280;4988;49.238;6.698;2023-03-21T08:11:12;99244.00;;;8.14;94.03
9899;BME280;4988;49.238;6.698;2023-03-21T08:13:39;99239.41;;;8.19;92.97
9899;BME280;4988;49.238;6.698;2023-03-21T08:16:06;99236.59;;;8.24;92.98
9899;BME280;4988;49.238;6.698;2023-03-21T08:18:32;99237.25;;;8.30;92.97
9899;BME280;4988;49.238;6.698;2023-03-21T08:20:58;99239.78;;;8.33;92.94
9899;BME280;4988;49.238;6.698;2023-03-21T08:23:24;99240.38;;;8.42;92.15
9899;BME280;4988;49.238;6.698;2023-03-21T08:25:53;99233.97;;;8.49;91.60
9899;BME280;4988;49.238;6.698;2023-03-21T08:28:19;99234.53;;;8.57;91.76
9899;BME280;4988;49.238;6.698;2023-03-21T08:30:45;99238.84;;;8.61;91.45
9899;BME280;4988;49.238;6.698;2023-03-21T08:33:11;99233.31;;;8.67;91.08
9899;BME280;4988;49.238;6.698;2023-03-21T08:35:38;99234.00;;;8.73;90.57
9899;BME280;4988;49.238;6.698;2023-03-21T08:38:04;99225.06;;;8.75;91.21
9899;BME280;4988;49.238;6.698;2023-03-21T08:40:30;99238.78;;;8.87;90.96
9899;BME280;4988;49.238;6.698;2023-03-21T08:42:55;99239.47;;;8.92;91.08
9899;BME280;4988;49.238;6.698;2023-03-21T08:45:21;99235.63;;;9.00;91.30
9899;BME280;4988;49.238;6.698;2023-03-21T08:47:47;99226.38;;;9.11;90.93
9899;BME280;4988;49.238;6.698;2023-03-21T08:50:18;99225.88;;;9.23;90.60
9899;BME280;4988;49.238;6.698;2023-03-21T08:52:44;99223.66;;;9.34;90.18
9899;BME280;4988;49.238;6.698;2023-03-21T08:55:11;99225.91;;;9.45;89.51
9899;BME280;4988;49.238;6.698;2023-03-21T08:57:36;99219.59;;;9.48;89.38
9899;BME280;4988;49.238;6.698;2023-03-21T09:00:04;99222.81;;;9.56;88.87
9899;BME280;4988;49.238;6.698;2023-03-21T09:02:37;99217.09;;;9.65;88.32
9899;BME280;4988;49.238;6.698;2023-03-21T09:05:02;99217.59;;;9.75;88.15
9899;BME280;4988;49.238;6.698;2023-03-21T09:07:30;99219.06;;;9.82;87.70
9899;BME280;4988;49.238;6.698;2023-03-21T09:09:58;99213.69;;;9.84;88.15
9899;BME280;4988;49.238;6.698;2023-03-21T09:12:24;99207.19;;;9.91;87.91
9899;BME280;4988;49.238;6.698;2023-03-21T09:14:49;99213.16;;;9.96;88.10
9899;BME280;4988;49.238;6.698;2023-03-21T09:17:15;99207.63;;;10.03;88.39
9899;BME280;4988;49.238;6.698;2023-03-21T09:19:40;99211.44;;;10.16;88.04
9899;BME280;4988;49.238;6.698;2023-03-21T09:22:06;99212.91;;;10.23;87.63
9899;BME280;4988;49.238;6.698;2023-03-21T09:24:42;99209.13;;;10.29;87.07
9899;BME280;4988;49.238;6.698;2023-03-21T09:27:07;99208.69;;;10.40;85.39
9899;BME280;4988;49.238;6.698;2023-03-21T09:29:33;99210.16;;;10.47;85.35
9899;BME280;4988;49.238;6.698;2023-03-21T09:31:59;99210.53;;;10.58;84.48
9899;BME280;4988;49.238;6.698;2023-03-21T09:34:25;99220.75;;;10.68;83.80
9899;BME280;4988;49.238;6.698;2023-03-21T09:36:51;99215.44;;;10.68;84.02
9899;BME280;4988;49.238;6.698;2023-03-21T09:39:21;99213.28;;;10.76;83.83
9899;BME280;4988;49.238;6.698;2023-03-21T09:42:06;99219.53;;;10.75;84.26
9899;BME280;4988;49.238;6.698;2023-03-21T09:49:40;99210.25;;;10.84;83.71
9899;BME280;4988;49.238;6.698;2023-03-21T09:52:32;99208.59;;;10.81;83.32
9899;BME280;4988;49.238;6.698;2023-03-21T09:55:02;99224.47;;;10.84;83.75
9899;BME280;4988;49.238;6.698;2023-03-21T09:57:46;99218.25;;;10.84;84.68
9899;BME280;4988;49.238;6.698;2023-03-21T10:00:37;99214.75;;;10.83;85.77
9899;BME280;4988;49.238;6.698;2023-03-21T10:03:11;99213.53;;;10.90;85.18
9899;BME280;4988;49.238;6.698;2023-03-21T10:05:43;99216.22;;;10.89;86.54
9899;BME280;4988;49.238;6.698;2023-03-21T10:08:25;99213.16;;;10.79;87.27
9899;BME280;4988;49.238;6.698;2023-03-21T10:10:54;99209.06;;;10.72;88.61
9899;BME280;4988;49.238;6.698;2023-03-21T10:13:27;99212.91;;;10.65;90.69
9899;BME280;4988;49.238;6.698;2023-03-21T10:15:57;99211.25;;;10.62;91.36
9899;BME280;4988;49.238;6.698;2023-03-21T10:18:28;99210.19;;;10.66;90.77
9899;BME280;4988;49.238;6.698;2023-03-21T10:20:53;99210.75;;;10.73;90.84
9899;BME280;4988;49.238;6.698;2023-03-21T10:23:21;99205.31;;;10.76;91.39
9899;BME280;4988;49.238;6.698;2023-03-21T10:25:52;99207.03;;;10.77;91.86
9899;BME280;4988;49.238;6.698;2023-03-21T10:28:22;99207.84;;;10.79;92.29
9899;BME280;4988;49.238;6.698;2023-03-21T10:30:52;99206.66;;;10.85;92.48
9899;BME280;4988;49.238;6.698;2023-03-21T10:33:32;99196.09;;;10.83;91.39
9899;BME280;4988;49.238;6.698;2023-03-21T10:36:01;99199.63;;;10.84;92.04
9899;BME280;4988;49.238;6.698;2023-03-21T10:38:29;99191.41;;;10.88;93.02
9899;BME280;4988;49.238;6.698;2023-03-21T10:40:54;99198.41;;;10.91;93.65
9899;BME280;4988;49.238;6.698;2023-03-21T10:45:53;99192.56;;;11.02;93.98
9899;BME280;4988;49.238;6.698;2023-03-21T10:48:19;99190.34;;;11.12;94.31
9899;BME280;4988;49.238;6.698;2023-03-21T10:50:48;99189.31;;;11.14;93.96
9899;BME280;4988;49.238;6.698;2023-03-21T10:53:37;99193.25;;;11.24;94.09
9899;BME280;4988;49.238;6.698;2023-03-21T10:56:07;99189.19;;;11.17;94.09
9899;BME280;4988;49.238;6.698;2023-03-21T10:58:54;99189.19;;;11.17;93.88
9899;BME280;4988;49.238;6.698;2023-03-21T11:01:38;99195.88;;;11.26;93.68
9899;BME280;4988;49.238;6.698;2023-03-21T11:04:25;99188.81;;;11.25;93.43
9899;BME280;4988;49.238;6.698;2023-03-21T11:06:55;99194.88;;;11.29;93.10
9899;BME280;4988;49.238;6.698;2023-03-21T11:09:26;99186.41;;;11.38;92.61
9899;BME280;4988;49.238;6.698;2023-03-21T11:12:11;99187.84;;;11.45;92.67
9899;BME280;4988;49.238;6.698;2023-03-21T11:14:44;99191.00;;;11.53;92.29
9899;BME280;4988;49.238;6.698;2023-03-21T11:19:51;99180.44;;;11.69;93.07
9899;BME280;4988;49.238;6.698;2023-03-21T11:22:19;99176.56;;;11.75;93.35
9899;BME280;4988;49.238;6.698;2023-03-21T11:24:52;99172.91;;;11.78;92.15
9899;BME280;4988;49.238;6.698;2023-03-21T11:27:20;99176.44;;;11.78;89.15
9899;BME280;4988;49.238;6.698;2023-03-21T11:29:49;99171.34;;;11.73;90.39
9899;BME280;4988;49.238;6.698;2023-03-21T11:32:36;99165.28;;;11.70;86.20
9899;BME280;4988;49.238;6.698;2023-03-21T11:35:13;99153.38;;;11.77;85.74
9899;BME280;4988;49.238;6.698;2023-03-21T11:37:50;99147.03;;;11.97;85.51
9899;BME280;4988;49.238;6.698;2023-03-21T11:40:18;99142.50;;;11.99;83.10
9899;BME280;4988;49.238;6.698;2023-03-21T11:42:51;99135.34;;;12.17;83.59
9899;BME280;4988;49.238;6.698;2023-03-21T11:45:26;99125.75;;;12.13;82.13
9899;BME280;4988;49.238;6.698;2023-03-21T11:47:55;99122.75;;;12.19;82.66
9899;BME280;4988;49.238;6.698;2023-03-21T11:50:28;99124.25;;;12.25;81.14
9899;BME280;4988;49.238;6.698;2023-03-21T12:01:06;99112.41;;;11.96;80.05
9899;BME280;4988;49.238;6.698;2023-03-21T12:17:14;99110.94;;;12.07;79.88
9899;BME280;4988;49.238;6.698;2023-03-21T12:19:51;99113.38;;;12.12;80.44
9899;BME280;4988;49.238;6.698;2023-03-21T12:22:42;99101.44;;;12.35;79.06
9899;BME280;4988;49.238;6.698;2023-03-21T12:25:14;99100.00;;;12.30;79.53
9899;BME280;4988;49.238;6.698;2023-03-21T12:30:37;99086.38;;;12.18;79.16
9899;BME280;4988;49.238;6.698;2023-03-21T12:33:19;99076.38;;;12.22;79.04
9899;BME280;4988;49.238;6.698;2023-03-21T12:41:49;99036.44;;;12.52;80.84
9899;BME280;4988;49.238;6.698;2023-03-21T12:44:22;99012.25;;;12.55;80.70
9899;BME280;4988;49.238;6.698;2023-03-21T12:46:56;99004.00;;;12.60;80.26
9899;BME280;4988;49.238;6.698;2023-03-21T12:49:33;98983.22;;;12.65;79.87
9899;BME280;4988;49.238;6.698;2023-03-21T12:52:11;98982.53;;;12.62;79.57
9899;BME280;4988;49.238;6.698;2023-03-21T12:54:41;98988.66;;;12.48;80.96
9899;BME280;4988;49.238;6.698;2023-03-21T12:57:25;98990.31;;;12.50;80.56
9899;BME280;4988;49.238;6.698;2023-03-21T13:05:26;98995.28;;;12.73;78.19
9899;BME280;4988;49.238;6.698;2023-03-21T13:08:45;98983.88;;;12.85;78.94
9899;BME280;4988;49.238;6.698;2023-03-21T13:10:44;98989.41;;;12.82;78.91
9899;BME280;4988;49.238;6.698;2023-03-21T13:16:11;99004.34;;;12.70;76.89
9899;BME280;4988;49.238;6.698;2023-03-21T13:21:17;98979.59;;;12.82;77.76
9899;BME280;4988;49.238;6.698;2023-03-21T13:26:45;98991.22;;;12.81;76.72
9899;BME280;4988;49.238;6.698;2023-03-21T13:31:52;98985.06;;;12.95;78.64
9899;BME280;4988;49.238;6.698;2023-03-21T13:34:22;98997.47;;;12.96;78.22
9899;BME280;4988;49.238;6.698;2023-03-21T13:36:50;99009.59;;;13.02;78.91
9899;BME280;4988;49.238;6.698;2023-03-21T13:39:19;99005.22;;;13.01;76.85
9899;BME280;4988;49.238;6.698;2023-03-21T13:41:47;99019.34;;;13.03;77.86
9899;BME280;4988;49.238;6.698;2023-03-21T13:44:35;99024.31;;;13.09;78.70
9899;BME280;4988;49.238;6.698;2023-03-21T13:47:05;99037.69;;;13.09;76.71
9899;BME280;4988;49.238;6.698;2023-03-21T13:55:45;99035.44;;;13.17;76.11
9899;BME280;4988;49.238;6.698;2023-03-21T14:04:28;99034.25;;;13.07;70.04
9899;BME280;4988;49.238;6.698;2023-03-21T14:06:57;99038.66;;;13.08;69.98
9899;BME280;4988;49.238;6.698;2023-03-21T14:09:39;99032.09;;;13.14;69.14
9899;BME280;4988;49.238;6.698;2023-03-21T14:12:09;99032.97;;;13.14;69.72
9899;BME280;4988;49.238;6.698;2023-03-21T14:14:42;99030.78;;;13.21;70.73
9899;BME280;4988;49.238;6.698;2023-03-21T14:17:37;99010.50;;;13.33;68.67
9899;BME280;4988;49.238;6.698;2023-03-21T14:20:13;99006.84;;;13.34;70.39
9899;BME280;4988;49.238;6.698;2023-03-21T14:22:40;99011.34;;;13.33;69.20
9899;BME280;4988;49.238;6.698;2023-03-21T14:25:16;99003.59;;;13.29;70.13
9899;BME280;4988;49.238;6.698;2023-03-21T14:27:50;99011.03;;;13.24;68.80
9899;BME280;4988;49.238;6.698;2023-03-21T14:30:24;99004.16;;;13.19;69.75
9899;BME280;4988;49.238;6.698;2023-03-21T14:32:54;98997.66;;;13.24;69.37
9899;BME280;4988;49.238;6.698;2023-03-21T14:35:21;98991.38;;;13.25;70.08
9899;BME280;4988;49.238;6.698;2023-03-21T14:37:47;98986.50;;;13.31;70.48
9899;BME280;4988;49.238;6.698;2023-03-21T14:40:23;98988.91;;;13.36;71.00
9899;BME280;4988;49.238;6.698;2023-03-21T14:42:50;99002.72;;;13.44;70.76
9899;BME280;4988;49.238;6.698;2023-03-21T14:45:21;98992.00;;;13.44;68.82
9899;BME280;4988;49.238;6.698;2023-03-21T14:47:55;98988.56;;;13.42;69.67
9899;BME280;4988;49.238;6.698;2023-03-21T14:50:49;98978.75;;;13.43;69.16
9899;BME280;4988;49.238;6.698;2023-03-21T14:53:17;98980.25;;;13.47;70.35
9899;BME280;4988;49.238;6.698;2023-03-21T14:55:47;98970.91;;;13.54;69.40
9899;BME280;4988;49.238;6.698;2023-03-21T14:58:15;98973.50;;;13.56;69.99
9899;BME280;4988;49.238;6.698;2023-03-21T15:00:42;98961.56;;;13.61;70.54
9899;BME280;4988;49.238;6.698;2023-03-21T15:03:10;98957.06;;;13.62;69.37
9899;BME280;4988;49.238;6.698;2023-03-21T15:05:36;98957.84;;;13.64;69.00
9899;BME280;4988;49.238;6.698;2023-03-21T15:08:14;98950.78;;;13.77;69.74
9899;BME280;4988;49.238;6.698;2023-03-21T15:10:41;98946.28;;;13.78;69.89
9899;BME280;4988;49.238;6.698;2023-03-21T15:13:34;98948.66;;;13.82;69.10
9899;BME280;4988;49.238;6.698;2023-03-21T15:16:01;98937.75;;;13.86;68.34